Glenhaven, CA (95443)

11:25 PM PST on November 28, 2014 (GMT -0800)
Indian Beach | Change Station
CLOSE
Current Station
Personal Weather Station
Location: Clearlake Oaks, CA
Elevation: 1339 ft
Nearby Weather Stations

Elev 1339 ft 39.02 °N, 122.72 °W | Updated 35 seconds ago

Overcast
Overcast
53.6 °F
Feels Like 53.6 °F
N
0.4
Wind Variable Wind from SE
Gusts 1.3 mph

Today
High -- | Low -- °F
--% Chance of Precip.
Yesterday
High -- | Low -- °F
Precip. -- in
7:08 AM 4:49 PM
Waxing Crescent, 49% visible
Pressure 29.81 in
Visibility 9.0 miles
Clouds Overcast 2000 ft
Dew Point 51 °F
Humidity 88%
Rainfall 0.32 in
Snow Depth Not available.
UV 0 out of 12
Pollen 2.10 out of 12
Air Quality Not available.
Flu Activity Not available.
METAR KUKI 290656Z AUTO 16007KT 9SM -RA OVC020 13/11 A2982 RMK AO2 RAE10B41 SLP095 P0001 T01280111

More Conditions Fewer Conditions

Pressure 29.81 in
Visibility 9.0 miles
Clouds Overcast 2000 ft
Dew Point 51 °F
Humidity 88%
Rainfall 0.32 in
Snow Depth Not available.
UV 0 out of 12
Pollen 2.10 out of 12
Air Quality Not available.
Flu Activity Not available.
METAR KUKI 290656Z AUTO 16007KT 9SM -RA OVC020 13/11 A2982 RMK AO2 RAE10B41 SLP095 P0001 T01280111

More Conditions Fewer Conditions

10-Day Weather Forecast

Almanac

Astronomy

Nov. 28, 2014 Rise Set
Actual Time
Civil Twilight
Nautical Twilight
Astronomical Twilight
Moon
Length of Visible Light
Length of Day
Tomorrow will be .
, % of the Moon is Illuminated

Today's Extremes

State Highs State Lows

Community

WunderPhotos

Upload Photos

1,774,432 photos uploaded!

WunderBlogs® & News

Nearby

Air Quality

  Air Quality AQ Index Pollutant
Not available.

Snow Depth

Station Depth Elevation

Earthquake Activity

City Distance Mag. Time & Date
Minimum magnitude displayed is 2.5.

Coastal Water Temperatures

Place Temperature

Nearby Weather Stations